LEVC/VLC METAR and TAF weather

Enter ICAO airport designator
Station Type Date Time Source
LEVC METAR 2020/01/26 01:00 UTC NOAA

LEVC 260100Z 30003KT 9999 FEW020 SCT050 11/10 Q1018 NOSIG


Station Type Date Time Source
LEVC Decoded METAR 2020/01/26 01:00 UTC NOAA

Valencia / Aeropuerto, Spain (LEVC) 39-30N 000-28W 62M
Jan 25, 2020 - 08:00 PM EST / 2020.01.26 0100 UTC
Wind: from the WNW (300 degrees) at 3 MPH (3 KT):0
Visibility: greater than 7 mile(s):0
Sky conditions: partly cloudy
Temperature: 51 F (11 C)
Dew Point: 50 F (10 C)
Relative Humidity: 93%
Pressure (altimeter): 30.06 in. Hg (1018 hPa)
ob: LEVC 260100Z 30003KT 9999 FEW020 SCT050 11/10 Q1018 NOSIG
cycle: 1

Station Type Date Time Source
LEVC TAF 2020/01/25 18:27 UTC NOAA

TAF LEVC 251700Z 2518/2618 VRB04KT 9999 FEW020 SCT040 TX17/2612Z TN10/2606Z PROB30
TEMPO 2518/2521 6000 RADZ BKN014

Example: see airport list